createdAt,value
2024-04-25T00:07:10.876Z,5.90
2024-04-25T00:09:44.736Z,6.80
2024-04-25T00:12:34.088Z,8.30
2024-04-25T00:15:02.632Z,6.70
2024-04-25T00:17:35.245Z,7.80
2024-04-25T00:20:26.129Z,8.70
2024-04-25T00:23:03.781Z,7.70
2024-04-25T00:25:53.180Z,6.90
2024-04-25T00:28:35.726Z,5.60
2024-04-25T00:31:14.772Z,11.00
2024-04-25T00:33:52.868Z,8.40
2024-04-25T00:36:25.713Z,9.00
2024-04-25T00:39:36.845Z,10.50
2024-04-25T00:42:29.800Z,8.30
2024-04-25T00:44:59.516Z,8.20
2024-04-25T00:47:37.225Z,9.40
2024-04-25T00:50:27.978Z,9.80
2024-04-25T00:52:56.243Z,10.40
2024-04-25T00:55:25.129Z,7.60
2024-04-25T00:57:52.976Z,11.50
2024-04-25T01:00:25.224Z,14.50
2024-04-25T01:03:16.296Z,17.30
2024-04-25T01:05:48.327Z,14.70
2024-04-25T01:08:17.505Z,15.50
2024-04-25T01:10:45.277Z,16.30
2024-04-25T01:13:14.565Z,16.30
2024-04-25T01:15:44.902Z,20.00
2024-04-25T01:18:17.322Z,17.10
2024-04-25T01:20:45.775Z,23.00
2024-04-25T01:23:15.061Z,14.80
2024-04-25T01:25:48.625Z,14.90
2024-04-25T01:28:21.865Z,15.90
2024-04-25T01:31:03.098Z,15.50
2024-04-25T01:33:34.406Z,21.00
2024-04-25T01:36:04.102Z,12.40
2024-04-25T01:38:35.327Z,12.90
2024-04-25T01:41:06.662Z,15.50
2024-04-25T01:43:39.085Z,16.10
2024-04-25T01:46:08.827Z,14.50
2024-04-25T01:48:38.024Z,18.30
2024-04-25T01:51:07.970Z,11.30
2024-04-25T01:53:37.358Z,16.10
2024-04-25T01:56:05.662Z,8.40
2024-04-25T01:58:33.832Z,9.00
2024-04-25T02:01:05.121Z,13.20
2024-04-25T02:03:33.741Z,11.40
2024-04-25T02:06:04.089Z,9.70
2024-04-25T02:08:34.166Z,11.30
2024-04-25T02:11:09.192Z,13.70
2024-04-25T02:19:51.443Z,11.00
2024-04-25T02:29:12.654Z,10.00
2024-04-25T02:32:01.124Z,11.90
2024-04-25T02:34:31.357Z,10.60
2024-04-25T02:37:01.778Z,11.20
2024-04-25T02:39:30.631Z,11.60
2024-04-25T02:42:20.228Z,11.00
2024-04-25T02:44:51.259Z,11.90
2024-04-25T02:47:20.260Z,8.90
2024-04-25T02:49:49.756Z,11.30
2024-04-25T02:52:17.919Z,12.40
2024-04-25T02:54:46.677Z,10.10
2024-04-25T02:57:20.071Z,11.30
2024-04-25T02:59:48.955Z,16.10
2024-04-25T03:02:16.781Z,18.60
2024-04-25T03:04:54.040Z,13.00
2024-04-25T03:07:21.838Z,16.30
2024-04-25T03:09:50.680Z,13.20
2024-04-25T03:12:19.420Z,14.70
2024-04-25T03:14:48.248Z,16.20
2024-04-25T03:17:17.225Z,16.20
2024-04-25T03:19:46.028Z,13.90
2024-04-25T03:28:22.606Z,15.20
2024-04-25T03:30:53.568Z,12.90
2024-04-25T03:33:21.176Z,16.00
2024-04-25T03:35:48.994Z,13.70
2024-04-25T03:41:20.405Z,29.30
2024-04-25T03:51:03.615Z,14.50
2024-04-25T03:53:37.357Z,15.10
2024-04-25T03:56:08.033Z,12.10
2024-04-25T03:58:42.319Z,18.60
2024-04-25T04:01:17.250Z,17.80
2024-04-25T04:06:23.847Z,19.50
2024-04-25T04:08:57.284Z,15.50
2024-04-25T04:11:28.667Z,14.20
2024-04-25T04:13:56.351Z,18.60
2024-04-25T04:16:35.333Z,15.40
2024-04-25T04:19:05.094Z,14.50
2024-04-25T04:21:32.731Z,15.30
2024-04-25T04:24:02.241Z,24.10
2024-04-25T04:26:30.301Z,24.90
2024-04-25T04:29:04.441Z,25.40
2024-04-25T04:31:38.637Z,25.70
2024-04-25T04:34:08.873Z,25.50
2024-04-25T04:36:36.416Z,23.70
2024-04-25T04:39:03.872Z,19.20
2024-04-25T04:41:30.982Z,18.80
2024-04-25T04:44:00.503Z,19.80
2024-04-25T04:46:29.432Z,19.80
2024-04-25T04:48:58.605Z,25.70
2024-04-25T04:51:28.734Z,22.40
2024-04-25T04:53:58.605Z,21.60
2024-04-25T04:56:30.022Z,21.90
2024-04-25T04:58:58.751Z,17.90
2024-04-25T05:01:30.762Z,15.00
2024-04-25T05:04:00.604Z,12.10
2024-04-25T05:06:31.706Z,13.30
2024-04-25T05:09:01.306Z,10.20
2024-04-25T05:11:32.521Z,10.80
2024-04-25T05:14:03.888Z,10.10
2024-04-25T05:16:33.811Z,11.00
2024-04-25T05:19:06.652Z,11.90
2024-04-25T05:21:34.198Z,11.00
2024-04-25T05:24:02.318Z,9.80
2024-04-25T05:26:32.239Z,11.30
2024-04-25T05:29:00.866Z,11.70
2024-04-25T05:31:29.788Z,9.40
2024-04-25T05:34:00.047Z,10.00
2024-04-25T05:36:56.209Z,8.40
2024-04-25T05:39:32.702Z,9.70
2024-04-25T05:42:06.555Z,9.60
2024-04-25T05:44:34.307Z,6.10
2024-04-25T05:47:09.519Z,7.20
2024-04-25T05:49:42.455Z,7.60
2024-04-25T05:54:39.458Z,7.10
2024-04-25T05:57:06.441Z,12.50
2024-04-25T05:59:33.455Z,8.70
2024-04-25T06:02:00.615Z,18.40
2024-04-25T06:04:27.920Z,7.50
2024-04-25T06:06:55.033Z,6.50
2024-04-25T06:09:22.381Z,5.90
2024-04-25T06:11:52.964Z,5.60
2024-04-25T06:14:23.392Z,7.80
2024-04-25T06:20:28.479Z,6.60
2024-04-25T06:22:55.835Z,6.90
2024-04-25T06:25:22.921Z,6.10
2024-04-25T06:27:50.042Z,4.90
2024-04-25T06:30:17.144Z,6.20
2024-04-25T06:32:44.473Z,8.90
2024-04-25T06:35:11.636Z,9.00
2024-04-25T06:37:38.737Z,4.00
2024-04-25T06:40:06.194Z,4.40
2024-04-25T06:42:34.123Z,4.30
2024-04-25T06:45:01.293Z,4.20
2024-04-25T06:47:28.354Z,9.40
2024-04-25T06:49:55.668Z,3.40
2024-04-25T06:52:22.644Z,4.10
2024-04-25T06:54:51.762Z,5.90
2024-04-25T06:57:18.752Z,4.00
2024-04-25T06:59:47.568Z,6.00
2024-04-25T07:02:17.460Z,4.30
2024-04-25T07:04:47.832Z,7.40
2024-04-25T07:10:52.346Z,6.10
2024-04-25T07:13:20.267Z,21.60
2024-04-25T07:18:48.557Z,3.80
2024-04-25T07:21:15.642Z,4.20
2024-04-25T07:23:42.808Z,5.90
2024-04-25T07:26:10.117Z,4.70
2024-04-25T07:28:37.501Z,6.60
2024-04-25T07:31:04.972Z,6.10
2024-04-25T07:33:32.477Z,7.50
2024-04-25T07:35:59.853Z,9.00
2024-04-25T07:38:27.159Z,6.00
2024-04-25T07:40:54.673Z,5.00
2024-04-25T07:43:26.902Z,5.40
2024-04-25T07:45:59.024Z,6.50
2024-04-25T07:48:27.524Z,6.30
2024-04-25T07:50:57.446Z,5.40
2024-04-25T07:53:35.541Z,6.80
2024-04-25T07:56:06.722Z,4.90
2024-04-25T07:58:39.613Z,5.90
2024-04-25T08:06:13.225Z,4.20
2024-04-25T08:08:45.859Z,4.00
2024-04-25T08:11:17.781Z,5.10
2024-04-25T08:13:57.460Z,6.80
2024-04-25T08:16:29.029Z,7.90
2024-04-25T08:19:21.478Z,6.50
2024-04-25T08:21:54.535Z,6.30
2024-04-25T08:24:24.852Z,8.40
2024-04-25T08:26:53.532Z,4.90
2024-04-25T08:29:31.840Z,4.80
2024-04-25T08:32:08.683Z,5.40
2024-04-25T08:34:39.503Z,5.50
2024-04-25T08:37:10.351Z,5.80
2024-04-25T08:39:40.736Z,5.70
2024-04-25T08:42:14.168Z,6.90
2024-04-25T08:44:45.173Z,4.60
2024-04-25T08:49:43.899Z,4.90
2024-04-25T08:52:46.079Z,6.90
2024-04-25T08:55:16.564Z,4.40
2024-04-25T08:57:52.804Z,6.20
2024-04-25T09:00:26.390Z,7.50
2024-04-25T09:02:54.541Z,5.10
2024-04-25T09:05:29.626Z,8.00
2024-04-25T09:08:15.753Z,9.20
2024-04-25T09:10:48.130Z,7.30
2024-04-25T09:13:17.309Z,5.30
2024-04-25T09:15:53.427Z,5.50
2024-04-25T09:18:29.070Z,5.10
2024-04-25T09:21:02.292Z,5.30
2024-04-25T09:26:13.644Z,8.40
2024-04-25T09:29:04.310Z,6.50
2024-04-25T09:31:34.403Z,4.70
2024-04-25T09:34:05.793Z,6.10
2024-04-25T09:36:35.759Z,9.50
2024-04-25T09:39:05.057Z,4.50
2024-04-25T09:41:44.683Z,5.50
2024-04-25T09:44:11.946Z,4.80
2024-04-25T09:46:40.841Z,7.80
2024-04-25T09:49:08.632Z,4.80
2024-04-25T09:51:49.629Z,5.90
2024-04-25T09:54:28.666Z,5.50
2024-04-25T09:57:00.040Z,4.20
2024-04-25T10:00:12.009Z,5.50
2024-04-25T10:02:49.134Z,5.80
2024-04-25T10:05:19.071Z,6.20
2024-04-25T10:07:49.399Z,4.60
2024-04-25T10:10:23.565Z,4.80
2024-04-25T10:12:56.805Z,3.60
2024-04-25T10:15:47.221Z,5.80
2024-04-25T10:18:17.087Z,4.40
2024-04-25T10:20:47.927Z,5.90
2024-04-25T10:23:16.956Z,3.90
2024-04-25T10:25:56.486Z,3.50
2024-04-25T10:28:33.982Z,4.00
2024-04-25T10:31:02.983Z,4.40
2024-04-25T10:33:33.080Z,4.90
2024-04-25T10:42:29.643Z,5.90
2024-04-25T10:45:03.792Z,5.90
2024-04-25T10:47:47.686Z,3.80
2024-04-25T10:50:18.594Z,4.80
2024-04-25T10:52:50.559Z,4.10
2024-04-25T10:58:11.255Z,5.60
2024-04-25T11:00:49.345Z,4.80
2024-04-25T11:03:19.903Z,3.60
2024-04-25T11:05:54.070Z,4.80
2024-04-25T11:08:27.302Z,4.30
2024-04-25T11:11:00.729Z,4.20
2024-04-25T11:13:33.570Z,3.10
2024-04-25T11:16:04.197Z,3.80
2024-04-25T11:18:33.927Z,5.20
2024-04-25T11:21:05.443Z,4.50
2024-04-25T11:23:34.849Z,3.30
2024-04-25T11:26:08.886Z,3.80
2024-04-25T11:28:38.852Z,3.10
2024-04-25T11:31:13.409Z,5.00
2024-04-25T11:33:51.825Z,5.60
2024-04-25T11:36:26.878Z,5.10
2024-04-25T11:39:03.942Z,4.50
2024-04-25T11:42:00.180Z,3.20
2024-04-25T11:44:34.830Z,4.10
2024-04-25T11:47:16.190Z,2.90
2024-04-25T11:49:55.503Z,3.70
2024-04-25T11:52:30.711Z,3.60
2024-04-25T11:55:05.357Z,3.40
2024-04-25T11:57:55.070Z,3.60
2024-04-25T12:00:24.524Z,3.60
2024-04-25T12:02:54.736Z,3.20
2024-04-25T12:05:33.462Z,4.30
2024-04-25T12:08:08.514Z,3.40
2024-04-25T12:11:21.796Z,4.30
2024-04-25T12:13:51.019Z,2.60
2024-04-25T12:16:22.666Z,4.20
2024-04-25T12:18:58.964Z,3.20
2024-04-25T12:21:52.802Z,3.10
2024-04-25T12:24:22.620Z,3.30
2024-04-25T12:27:00.117Z,3.40
2024-04-25T12:29:32.050Z,4.50
2024-04-25T12:32:10.841Z,3.40
2024-04-25T12:34:38.840Z,3.90
2024-04-25T12:37:10.735Z,3.70
2024-04-25T12:39:52.205Z,3.30
2024-04-25T12:42:43.388Z,4.30
2024-04-25T12:45:13.648Z,4.30
2024-04-25T12:47:42.411Z,3.60
2024-04-25T12:50:18.275Z,3.60
2024-04-25T12:52:49.943Z,3.40
2024-04-25T12:55:22.218Z,3.20
2024-04-25T12:58:11.647Z,3.10
2024-04-25T13:04:01.006Z,2.90
2024-04-25T13:06:33.063Z,3.20
2024-04-25T13:09:06.088Z,2.90
2024-04-25T13:11:57.106Z,2.90
2024-04-25T13:14:27.266Z,4.40
2024-04-25T13:21:02.701Z,3.00
2024-04-25T13:24:01.042Z,5.10
2024-04-25T13:26:51.250Z,4.60
2024-04-25T13:29:28.017Z,3.00
2024-04-25T13:32:03.587Z,5.80
2024-04-25T13:37:04.094Z,4.00
2024-04-25T13:39:50.251Z,2.70
2024-04-25T13:42:27.006Z,3.90
2024-04-25T13:45:00.347Z,3.20
2024-04-25T13:47:31.392Z,3.00
2024-04-25T13:50:18.671Z,3.20
2024-04-25T13:52:52.301Z,3.20
2024-04-25T13:55:28.366Z,2.70
2024-04-25T13:58:03.261Z,3.40
2024-04-25T14:01:17.266Z,3.50
2024-04-25T14:03:48.426Z,4.00
2024-04-25T14:06:43.102Z,2.70
2024-04-25T14:09:11.459Z,2.80
2024-04-25T14:11:41.271Z,4.00
2024-04-25T14:14:10.693Z,5.30
2024-04-25T14:16:38.446Z,4.10
2024-04-25T14:19:08.642Z,4.40
2024-04-25T14:21:35.916Z,6.50
2024-04-25T14:24:03.566Z,5.20
2024-04-25T14:26:52.016Z,3.30
2024-04-25T14:29:21.581Z,3.80
2024-04-25T14:31:50.624Z,3.70
2024-04-25T14:34:26.594Z,3.90
2024-04-25T14:36:53.893Z,4.50
2024-04-25T14:39:24.435Z,2.80
2024-04-25T14:41:53.980Z,2.60
2024-04-25T14:44:22.658Z,3.80
2024-04-25T14:46:52.253Z,4.00
2024-04-25T14:49:21.279Z,4.00
2024-04-25T14:51:50.406Z,4.00
2024-04-25T14:54:17.579Z,4.00
2024-04-25T14:56:45.058Z,3.70
2024-04-25T14:59:12.152Z,6.00
2024-04-25T15:01:39.269Z,4.60
2024-04-25T15:04:06.347Z,3.70
2024-04-25T15:06:39.318Z,4.00
2024-04-25T15:09:06.544Z,3.60
2024-04-25T15:11:33.842Z,4.80
2024-04-25T15:14:01.080Z,4.00
2024-04-25T15:16:28.225Z,4.90
2024-04-25T15:18:55.408Z,5.90
2024-04-25T15:21:22.787Z,4.80
2024-04-25T15:23:50.089Z,7.10
2024-04-25T15:26:18.750Z,5.70
2024-04-25T15:28:46.280Z,4.80
2024-04-25T15:31:17.840Z,5.00
2024-04-25T15:33:45.664Z,5.90
2024-04-25T15:36:14.608Z,6.50
2024-04-25T15:38:42.030Z,5.70
2024-04-25T15:41:11.253Z,6.60
2024-04-25T15:43:38.827Z,8.10
2024-04-25T15:46:05.973Z,9.40
2024-04-25T15:48:33.795Z,13.50
2024-04-25T15:51:00.997Z,11.00
2024-04-25T15:53:29.049Z,8.00
2024-04-25T15:58:35.462Z,11.10
2024-04-25T16:01:05.204Z,13.10
2024-04-25T16:03:35.209Z,13.00
2024-04-25T16:06:07.048Z,12.90
2024-04-25T16:08:35.398Z,15.30
2024-04-25T16:11:02.890Z,14.00
2024-04-25T16:13:30.583Z,13.20
2024-04-25T16:15:58.486Z,12.50
2024-04-25T16:18:26.597Z,13.90
2024-04-25T16:20:54.653Z,14.00
2024-04-25T16:23:22.651Z,7.00
2024-04-25T16:25:50.303Z,9.10
2024-04-25T16:28:18.038Z,8.80
2024-04-25T16:30:45.630Z,9.80
2024-04-25T16:33:13.552Z,11.50
2024-04-25T16:35:43.247Z,7.40
2024-04-25T16:38:12.402Z,6.60
2024-04-25T16:40:40.158Z,7.40
2024-04-25T16:43:07.830Z,10.50
2024-04-25T16:45:35.521Z,7.30
2024-04-25T16:48:03.789Z,12.10
2024-04-25T16:50:32.987Z,17.60
2024-04-25T16:53:01.290Z,10.90
2024-04-25T16:55:30.297Z,11.00
2024-04-25T16:57:58.816Z,19.10
2024-04-25T17:00:27.511Z,16.50
2024-04-25T17:02:55.772Z,13.30
2024-04-25T17:05:23.798Z,10.00
2024-04-25T17:07:55.842Z,10.20
2024-04-25T17:10:25.533Z,12.40
2024-04-25T17:12:54.652Z,12.50
2024-04-25T17:15:23.058Z,11.50
2024-04-25T17:17:53.051Z,14.10
2024-04-25T17:20:21.237Z,12.30
2024-04-25T17:22:50.713Z,18.60
2024-04-25T17:25:18.964Z,15.20
2024-04-25T17:27:47.783Z,13.10
2024-04-25T17:30:16.842Z,12.80
2024-04-25T17:32:44.667Z,11.30
2024-04-25T17:35:13.900Z,10.30
2024-04-25T17:37:43.852Z,9.00
2024-04-25T17:40:14.793Z,9.20
2024-04-25T17:42:43.089Z,9.60
2024-04-25T17:45:12.601Z,7.00
2024-04-25T17:47:42.354Z,8.90
2024-04-25T17:50:11.876Z,9.70
2024-04-25T17:52:42.627Z,8.30
2024-04-25T17:55:12.426Z,8.10
2024-04-25T17:57:44.143Z,9.40
2024-04-25T18:00:12.849Z,7.80
2024-04-25T18:02:42.637Z,8.10
2024-04-25T18:05:14.249Z,11.00
2024-04-25T18:07:43.820Z,10.50
2024-04-25T18:16:49.128Z,8.70
2024-04-25T18:19:40.334Z,6.30
2024-04-25T18:22:24.495Z,9.80
2024-04-25T18:24:58.469Z,6.30
2024-04-25T18:27:30.923Z,10.90
2024-04-25T18:30:07.509Z,11.80
2024-04-25T18:33:09.301Z,8.40
2024-04-25T18:36:00.545Z,8.00
2024-04-25T18:38:56.736Z,7.90
2024-04-25T18:41:40.438Z,9.00
2024-04-25T18:44:41.600Z,7.20
2024-04-25T18:47:23.991Z,13.80
2024-04-25T18:50:26.535Z,9.90
2024-04-25T18:53:18.799Z,7.50
2024-04-25T18:55:52.766Z,9.00
2024-04-25T18:58:22.456Z,8.80
2024-04-25T19:00:57.802Z,7.90
2024-04-25T19:03:31.703Z,9.50
2024-04-25T19:06:09.500Z,7.60
2024-04-25T19:08:49.799Z,8.10
2024-04-25T19:12:23.571Z,6.40
2024-04-25T19:14:57.509Z,6.20
2024-04-25T19:17:39.027Z,7.10
2024-04-25T19:23:19.971Z,4.30
2024-04-25T19:26:13.287Z,7.10
2024-04-25T19:28:49.283Z,7.30
2024-04-25T19:32:07.356Z,7.60
2024-04-25T19:34:38.274Z,5.30
2024-04-25T19:37:14.343Z,10.90
2024-04-25T19:39:55.683Z,6.50
2024-04-25T19:42:30.018Z,5.40
2024-04-25T19:44:59.472Z,5.30
2024-04-25T19:47:35.860Z,8.10
2024-04-25T19:50:10.254Z,7.60
2024-04-25T19:52:42.937Z,8.10
2024-04-25T19:55:12.029Z,6.70
2024-04-25T19:57:43.494Z,11.20
2024-04-25T20:00:14.359Z,5.10
2024-04-25T20:02:43.473Z,5.30
2024-04-25T20:05:28.873Z,8.60
2024-04-25T20:07:57.558Z,5.10
2024-04-25T20:10:28.281Z,5.60
2024-04-25T20:12:56.817Z,8.20
2024-04-25T20:15:30.505Z,8.50
2024-04-25T20:18:18.338Z,7.70
2024-04-25T20:21:05.860Z,15.00
2024-04-25T20:23:42.892Z,8.80
2024-04-25T20:26:14.150Z,5.00
2024-04-25T20:28:44.586Z,5.10
2024-04-25T20:31:16.062Z,7.60
2024-04-25T20:33:51.045Z,7.10
2024-04-25T20:36:24.955Z,5.20
2024-04-25T20:38:55.204Z,4.90
2024-04-25T20:41:29.240Z,4.40
2024-04-25T20:43:57.664Z,4.30
2024-04-25T20:46:27.543Z,6.40
2024-04-25T20:48:57.527Z,11.70
2024-04-25T20:51:32.045Z,19.70
2024-04-25T20:56:32.422Z,6.20
2024-04-25T20:59:03.514Z,6.40
2024-04-25T21:01:38.862Z,5.50
2024-04-25T21:04:08.167Z,4.40
2024-04-25T21:06:43.975Z,5.60
2024-04-25T21:09:13.838Z,8.80
2024-04-25T21:11:43.171Z,14.40
2024-04-25T21:14:12.538Z,10.30
2024-04-25T21:16:52.512Z,13.80
2024-04-25T21:19:24.862Z,23.40
2024-04-25T21:21:56.004Z,22.00
2024-04-25T21:24:24.757Z,17.10
2024-04-25T21:26:52.461Z,10.70
2024-04-25T21:29:22.452Z,11.40
2024-04-25T21:31:55.253Z,12.30
2024-04-25T21:34:24.818Z,6.70
2024-04-25T21:36:53.283Z,7.80
2024-04-25T21:39:22.754Z,5.70
2024-04-25T21:41:53.408Z,5.10
2024-04-25T21:44:22.609Z,6.00
2024-04-25T21:46:52.045Z,6.30
2024-04-25T21:49:20.378Z,10.10
2024-04-25T21:51:53.804Z,6.10
2024-04-25T21:54:26.382Z,6.30
2024-04-25T21:56:56.534Z,6.30
2024-04-25T21:59:27.331Z,7.10
2024-04-25T22:09:34.591Z,13.70
2024-04-25T22:12:04.626Z,10.80
2024-04-25T22:14:33.785Z,9.60
2024-04-25T22:17:03.285Z,11.10
2024-04-25T22:19:32.261Z,9.40
2024-04-25T22:22:02.404Z,11.00
2024-04-25T22:24:30.082Z,12.10
2024-04-25T22:27:04.912Z,12.60
2024-04-25T22:36:20.726Z,17.80
2024-04-25T22:38:51.061Z,16.40
2024-04-25T22:41:19.606Z,14.50
2024-04-25T22:44:25.876Z,14.70
2024-04-25T22:46:52.692Z,14.80
2024-04-25T22:49:20.003Z,18.80
2024-04-25T22:51:48.566Z,14.60
2024-04-25T22:54:17.006Z,16.40
2024-04-25T22:56:45.524Z,18.00
2024-04-25T22:59:12.798Z,13.40
2024-04-25T23:01:39.639Z,15.40
2024-04-25T23:04:06.689Z,13.30
2024-04-25T23:06:34.424Z,12.80
2024-04-25T23:09:01.868Z,14.50
2024-04-25T23:11:29.035Z,13.30
2024-04-25T23:14:00.453Z,15.40
2024-04-25T23:16:29.914Z,16.50
2024-04-25T23:19:00.319Z,14.00
2024-04-25T23:21:28.925Z,16.70
2024-04-25T23:23:55.835Z,23.80
2024-04-25T23:26:22.817Z,22.80
2024-04-25T23:28:49.627Z,27.10
2024-04-25T23:31:19.910Z,26.60
2024-04-25T23:33:47.157Z,31.20
2024-04-25T23:36:16.087Z,27.30
2024-04-25T23:38:44.168Z,31.20
2024-04-25T23:41:13.678Z,35.70
2024-04-25T23:43:41.565Z,30.00
2024-04-25T23:46:08.489Z,32.30
2024-04-25T23:48:36.012Z,26.80
2024-04-25T23:51:04.683Z,28.30
2024-04-25T23:53:31.710Z,34.80
2024-04-25T23:55:58.615Z,37.70
2024-04-25T23:58:26.244Z,42.80
